Time;durP1;ratioP1;P1;durP2;ratioP2;P2;SDS_P1;SDS_P2;PMS_P1;PMS_P2;Temp;Humidity;BMP_temperature;BMP_pressure;BME280_temperature;BME280_humidity;BME280_pressure;Samples;Min_cycle;Max_cycle;Signal;HPM_P1;HPM_P2
2023/10/10 00:01:41;;;;;;;5.70;1.50;;;;;;;5.44;58.91;100706.65;105479;1256;61415;-60
2023/10/10 00:04:10;;;;;;;3.30;0.90;;;;;;;5.48;58.84;100706.93;105458;1256;63090;-60
2023/10/10 00:06:42;;;;;;;4.90;1.30;;;;;;;5.57;58.63;100706.23;105460;1256;60567;-59
2023/10/10 00:09:10;;;;;;;3.50;1.00;;;;;;;5.67;58.56;100707.96;105483;1257;60558;-60
2023/10/10 00:11:45;;;;;;;6.40;1.30;;;;;;;5.77;58.45;100707.44;105461;1256;65137;-59
2023/10/10 00:14:19;;;;;;;6.20;2.20;;;;;;;5.86;58.31;100709.42;105362;1260;62078;-60
2023/10/10 00:16:48;;;;;;;5.80;2.00;;;;;;;5.90;58.12;100711.10;105267;1256;64231;-60
2023/10/10 00:19:44;;;;;;;4.10;1.10;;;;;;;5.86;57.93;100708.20;105271;1258;60455;-59
2023/10/10 00:22:12;;;;;;;4.10;1.30;;;;;;;5.78;57.94;100705.82;105491;1260;60627;-59
2023/10/10 00:24:39;;;;;;;4.60;1.90;;;;;;;5.71;58.12;100705.86;105170;1260;66735;-60
2023/10/10 00:27:12;;;;;;;4.90;1.50;;;;;;;5.66;58.23;100711.49;105170;1256;61903;-59
2023/10/10 00:29:43;;;;;;;8.20;2.30;;;;;;;5.61;58.36;100714.23;105112;1261;64390;-60
2023/10/10 00:32:22;;;;;;;3.50;1.10;;;;;;;5.53;58.49;100715.36;105527;1256;60486;-59
2023/10/10 00:34:50;;;;;;;4.50;1.60;;;;;;;5.45;58.80;100722.91;105179;1259;61683;-59
2023/10/10 00:37:29;;;;;;;5.10;1.90;;;;;;;5.38;58.88;100721.55;105233;1257;64901;-59
2023/10/10 00:40:00;;;;;;;6.00;1.50;;;;;;;5.31;59.01;100725.03;105862;1256;61316;-60
2023/10/10 00:42:37;;;;;;;5.30;2.10;;;;;;;5.27;59.10;100726.98;105840;1257;63685;-59
2023/10/10 00:45:09;;;;;;;6.10;1.50;;;;;;;5.24;59.20;100728.88;105530;1258;61005;-59
2023/10/10 00:47:40;;;;;;;6.50;2.00;;;;;;;5.20;59.37;100725.11;105463;1259;60459;-60
2023/10/10 00:50:16;;;;;;;7.50;1.60;;;;;;;5.17;59.40;100721.77;105485;1258;63673;-59
2023/10/10 00:52:48;;;;;;;5.40;1.30;;;;;;;5.17;59.53;100721.94;105352;1256;61942;-59
2023/10/10 00:55:21;;;;;;;6.90;1.90;;;;;;;5.19;59.49;100724.98;105135;1257;63660;-58
2023/10/10 00:57:52;;;;;;;4.40;1.30;;;;;;;5.27;59.36;100727.69;105261;1258;60666;-61
2023/10/10 01:00:25;;;;;;;7.20;1.50;;;;;;;5.35;59.28;100723.41;105114;1256;60447;-60
2023/10/10 01:02:53;;;;;;;4.40;1.40;;;;;;;5.44;59.17;100722.98;105298;1256;64982;-61
2023/10/10 01:05:23;;;;;;;3.90;1.00;;;;;;;5.52;59.02;100721.81;104961;1261;61373;-58
2023/10/10 01:07:53;;;;;;;5.70;1.70;;;;;;;5.56;58.97;100720.60;105219;1257;63756;-59
2023/10/10 01:10:21;;;;;;;4.80;1.30;;;;;;;5.55;59.01;100721.84;105258;1255;60563;-58
2023/10/10 01:12:49;;;;;;;3.10;0.80;;;;;;;5.54;59.04;100716.02;105417;1258;60442;-58
2023/10/10 01:15:34;;;;;;;4.20;1.10;;;;;;;5.53;58.90;100716.74;105208;1256;64984;-59
2023/10/10 01:18:03;;;;;;;4.80;1.80;;;;;;;5.52;58.91;100718.36;105657;1256;61798;-59
2023/10/10 01:20:44;;;;;;;4.30;1.60;;;;;;;5.47;58.94;100718.44;105644;1255;63785;-59
2023/10/10 01:23:15;;;;;;;7.60;2.30;;;;;;;5.42;58.87;100720.63;105533;1260;60563;-59
2023/10/10 01:25:45;;;;;;;3.60;1.20;;;;;;;5.38;58.93;100724.29;105403;1258;61667;-59
2023/10/10 01:28:15;;;;;;;4.50;1.30;;;;;;;5.36;58.91;100721.27;105336;1256;63629;-59
2023/10/10 01:36:03;;;;;;;7.60;2.00;;;;;;;5.26;59.04;100723.75;105170;1258;60432;-59
2023/10/10 01:38:55;;;;;;;8.30;1.70;;;;;;;5.21;59.12;100726.08;105825;1260;60508;-58
2023/10/10 01:41:31;;;;;;;4.90;1.50;;;;;;;5.18;59.24;100729.02;105179;1257;64962;-60
2023/10/10 01:44:11;;;;;;;5.10;1.50;;;;;;;5.15;59.34;100732.29;105752;1255;60700;-59
2023/10/10 01:46:42;;;;;;;7.60;1.90;;;;;;;5.13;59.39;100729.11;105369;1257;63746;-59
2023/10/10 01:49:13;;;;;;;4.50;1.50;;;;;;;5.14;59.46;100732.33;106353;1256;60402;-60
2023/10/10 01:51:42;;;;;;;3.50;1.10;;;;;;;5.22;59.13;100733.83;105420;1256;60558;-59
2023/10/10 01:54:18;;;;;;;5.30;2.00;;;;;;;5.26;58.71;100734.34;105385;1256;64938;-59
2023/10/10 01:56:46;;;;;;;3.40;1.70;;;;;;;5.27;58.54;100741.61;105159;1256;61344;-59
2023/10/10 01:59:19;;;;;;;4.60;1.50;;;;;;;5.28;58.49;100740.48;105144;1257;63731;-59
2023/10/10 02:01:48;;;;;;;6.20;1.80;;;;;;;5.28;58.53;100742.39;105162;1260;60443;-59
2023/10/10 02:04:21;;;;;;;3.50;1.40;;;;;;;5.27;58.58;100743.83;105237;1256;60474;-59
2023/10/10 02:06:55;;;;;;;3.70;1.30;;;;;;;5.25;58.62;100739.59;105238;1260;64919;-60
2023/10/10 02:11:54;;;;;;;6.60;1.30;;;;;;;5.18;58.61;100733.56;105272;1258;62520;-60
2023/10/10 02:14:25;;;;;;;4.70;1.30;;;;;;;5.15;58.58;100733.84;105256;1256;60540;-59
2023/10/10 02:16:54;;;;;;;5.50;2.10;;;;;;;5.14;58.65;100740.53;105326;1258;60482;-60
2023/10/10 02:19:33;;;;;;;5.80;1.70;;;;;;;5.14;58.63;100745.05;105102;1256;64919;-60
2023/10/10 02:22:23;;;;;;;3.50;1.00;;;;;;;5.13;58.61;100741.48;105619;1256;61380;-60
2023/10/10 02:25:31;;;;;;;4.30;1.10;;;;;;;5.09;58.68;100735.91;105028;1258;63700;-61
2023/10/10 02:27:54;;;;;;;4.50;1.40;;;;;;;5.06;58.85;100740.62;105477;1261;60528;-58
2023/10/10 02:30:34;;;;;;;5.40;1.90;;;;;;;5.03;58.96;100741.09;105152;1256;60557;-59
2023/10/10 02:33:14;;;;;;;5.30;1.70;;;;;;;5.02;59.19;100736.10;105658;1257;63770;-59
2023/10/10 02:36:12;;;;;;;4.80;1.60;;;;;;;5.00;59.18;100732.73;105588;1256;61313;-59
2023/10/10 02:38:32;;;;;;;5.60;2.00;;;;;;;4.99;59.32;100730.70;105668;1256;63294;-60
2023/10/10 02:46:35;;;;;;;2.90;1.30;;;;;;;4.94;59.48;100723.98;105176;1260;63652;-58
2023/10/10 02:49:29;;;;;;;4.20;1.00;;;;;;;4.99;59.43;100724.27;105502;1261;60454;-59
2023/10/10 02:51:58;;;;;;;3.00;0.80;;;;;;;5.06;59.24;100727.35;105756;1258;63806;-59
2023/10/10 03:00:15;;;;;;;5.30;1.30;;;;;;;5.25;59.21;100717.21;105169;1261;63863;-59
2023/10/10 03:02:53;;;;;;;3.20;0.80;;;;;;;5.29;58.98;100715.95;105118;1256;61366;-59
2023/10/10 03:05:39;;;;;;;8.80;2.20;;;;;;;5.27;59.03;100717.26;105040;1256;63736;-58
2023/10/10 03:11:01;;;;;;;2.60;1.20;;;;;;;5.24;58.95;100717.08;105151;1256;60540;-57
2023/10/10 03:13:45;;;;;;;4.60;2.10;;;;;;;5.20;58.95;100714.48;105260;1256;65313;-60
2023/10/10 03:29:47;;;;;;;6.30;1.80;;;;;;;4.82;59.02;100723.04;105809;1256;61319;-60
2023/10/10 03:32:34;;;;;;;4.40;1.70;;;;;;;4.72;59.15;100722.47;105271;1256;63772;-59
2023/10/10 03:35:13;;;;;;;4.40;1.50;;;;;;;4.63;59.39;100723.09;105922;1261;60481;-59
2023/10/10 03:37:43;;;;;;;5.10;2.10;;;;;;;4.57;59.46;100726.88;105499;1260;60421;-58
2023/10/10 05:25:51;;;;;;;5.80;1.80;;;;;;;4.71;58.94;100830.63;105286;1262;60434;-61
2023/10/10 05:28:19;;;;;;;5.40;2.10;;;;;;;4.69;58.96;100829.17;105265;1256;60473;-61
2023/10/10 05:30:47;;;;;;;8.10;4.00;;;;;;;4.64;58.79;100829.05;105257;1256;64898;-61
2023/10/10 05:33:19;;;;;;;4.90;1.60;;;;;;;4.60;58.91;100830.83;105299;1256;61543;-60
2023/10/10 05:35:47;;;;;;;8.60;3.60;;;;;;;4.56;59.07;100825.25;105225;1261;63950;-61
2023/10/10 05:38:19;;;;;;;11.80;2.50;;;;;;;4.55;59.19;100822.70;105128;1259;60587;-60
2023/10/10 05:40:48;;;;;;;7.30;2.00;;;;;;;4.55;59.35;100824.95;105030;1259;60789;-62
2023/10/10 05:43:16;;;;;;;4.50;1.30;;;;;;;4.60;59.41;100821.77;105387;1260;65539;-59
2023/10/10 05:45:43;;;;;;;5.60;1.20;;;;;;;4.66;59.35;100817.17;105090;1261;60562;-59
2023/10/10 05:48:12;;;;;;;6.00;2.20;;;;;;;4.69;59.19;100816.16;105494;1260;62457;-59
2023/10/10 05:50:40;;;;;;;6.00;2.00;;;;;;;4.76;59.11;100814.42;105450;1257;61388;-60
2023/10/10 05:53:09;;;;;;;5.10;1.90;;;;;;;4.91;59.12;100819.77;105598;1260;61752;-60
2023/10/10 05:55:38;;;;;;;4.50;1.50;;;;;;;5.08;58.91;100827.09;105546;1256;64966;-60
2023/10/10 05:58:06;;;;;;;5.60;1.60;;;;;;;5.27;58.58;100830.13;105573;1260;60089;-59
2023/10/10 06:00:36;;;;;;;5.30;1.90;;;;;;;5.43;58.36;100823.76;105541;1258;62583;-60
2023/10/10 06:03:07;;;;;;;5.90;2.20;;;;;;;5.56;58.02;100820.48;105575;1258;60566;-59
2023/10/10 06:05:35;;;;;;;5.10;2.00;;;;;;;5.64;57.52;100824.90;105198;1262;60560;-56
2023/10/10 06:08:05;;;;;;;7.30;3.00;;;;;;;5.71;57.27;100824.55;105218;1256;65557;-59
2023/10/10 06:10:33;;;;;;;8.50;2.00;;;;;;;5.78;57.13;100822.64;105776;1256;61366;-58
2023/10/10 06:13:06;;;;;;;4.40;1.20;;;;;;;5.83;56.95;100817.34;105062;1262;62469;-61
2023/10/10 06:15:34;;;;;;;5.70;1.60;;;;;;;5.90;57.07;100814.83;105148;1256;60640;-60
2023/10/10 06:18:12;;;;;;;8.20;3.10;;;;;;;6.00;56.94;100823.75;105226;1261;59250;-60
2023/10/10 06:20:41;;;;;;;5.30;1.90;;;;;;;6.08;56.42;100825.92;105412;1261;64961;-61
2023/10/10 06:23:25;;;;;;;6.20;2.00;;;;;;;6.16;56.13;100835.43;105211;1262;61429;-60
2023/10/10 06:25:58;;;;;;;5.60;1.40;;;;;;;6.26;55.65;100843.47;105862;1257;63797;-60
2023/10/10 06:28:26;;;;;;;6.90;2.00;;;;;;;6.36;55.55;100841.00;105815;1258;60533;-60
2023/10/10 06:30:53;;;;;;;7.00;2.30;;;;;;;6.43;55.54;100845.44;105137;1257;60525;-60
2023/10/10 06:33:28;;;;;;;5.10;1.80;;;;;;;6.49;54.81;100848.75;105640;1260;65439;-60
2023/10/10 06:39:12;;;;;;;4.80;1.60;;;;;;;6.51;54.67;100851.81;105152;1256;63755;-60
2023/10/10 06:41:42;;;;;;;8.10;3.20;;;;;;;6.56;54.75;100854.88;105454;1259;60844;-60
2023/10/10 06:44:13;;;;;;;6.80;2.60;;;;;;;6.65;54.61;100858.02;105481;1260;60400;-59
2023/10/10 06:46:49;;;;;;;8.10;1.70;;;;;;;6.74;54.57;100854.19;105251;1259;64908;-59
2023/10/10 06:49:20;;;;;;;3.70;1.50;;;;;;;6.86;54.59;100852.31;104930;1256;366048;-60
2023/10/10 06:53:34;;;;;;;6.00;1.80;;;;;;;6.98;54.11;100854.05;102434;1292;601129;-60
2023/10/10 06:56:14;;;;;;;5.30;1.90;;;;;;;7.32;53.32;100853.84;104839;1267;59397;-60
2023/10/10 06:58:46;;;;;;;7.10;2.00;;;;;;;7.46;53.27;100851.48;105660;1270;59268;-59
2023/10/10 07:01:19;;;;;;;7.90;1.90;;;;;;;7.57;53.03;100857.63;104438;1271;63336;-60
2023/10/10 07:03:54;;;;;;;5.90;2.40;;;;;;;7.62;52.84;100853.48;104466;1267;60222;-60
2023/10/10 07:06:22;;;;;;;11.50;4.80;;;;;;;7.66;52.67;100853.05;104868;1264;218902;-59
2023/10/10 07:09:14;;;;;;;6.70;3.20;;;;;;;7.71;52.67;100853.98;105269;1257;59349;-62
2023/10/10 07:11:40;;;;;;;13.90;4.70;;;;;;;7.76;52.74;100855.95;105188;1256;59361;-60
2023/10/10 07:14:10;;;;;;;5.00;1.90;;;;;;;7.83;52.94;100854.11;105133;1257;62017;-59
2023/10/10 07:16:42;;;;;;;5.00;1.90;;;;;;;7.90;52.89;100849.30;105653;1254;61312;-61
2023/10/10 07:19:22;;;;;;;10.20;4.50;;;;;;;7.91;52.66;100850.66;105590;1254;63820;-59
2023/10/10 07:21:53;;;;;;;6.50;1.70;;;;;;;7.91;52.80;100854.18;105323;1253;59611;-62
2023/10/10 07:24:28;;;;;;;10.10;4.50;;;;;;;7.91;52.85;100855.70;106038;1254;59989;-61
2023/10/10 07:27:04;;;;;;;5.70;1.70;;;;;;;7.95;52.98;100855.33;105317;1254;64124;-60
2023/10/10 07:32:18;;;;;;;8.70;2.10;;;;;;;8.02;52.92;100859.42;105396;1254;64438;-60
2023/10/10 07:34:52;;;;;;;5.60;1.90;;;;;;;8.05;53.09;100856.81;105399;1260;59955;-59
2023/10/10 07:37:22;;;;;;;4.60;1.40;;;;;;;8.13;52.78;100858.39;105489;1256;59580;-60
2023/10/10 07:39:55;;;;;;;4.80;1.70;;;;;;;8.19;52.63;100856.07;105284;1258;75319;-60
2023/10/10 07:42:27;;;;;;;10.40;4.20;;;;;;;8.19;52.39;100849.65;105264;1259;60113;-59
2023/10/10 07:44:58;;;;;;;5.50;1.40;;;;;;;8.20;52.48;100846.80;106047;1254;63881;-60
2023/10/10 07:47:26;;;;;;;9.20;4.50;;;;;;;8.22;52.58;100843.36;105380;1254;59761;-59
2023/10/10 07:49:55;;;;;;;5.10;1.70;;;;;;;8.24;52.40;100844.98;105299;1254;59611;-60
2023/10/10 07:52:22;;;;;;;6.90;2.40;;;;;;;8.26;52.64;100848.52;107669;1257;64345;-60
2023/10/10 07:54:53;;;;;;;7.80;4.20;;;;;;;8.29;52.68;100850.06;105268;1254;61863;-60
2023/10/10 07:57:28;;;;;;;6.60;2.30;;;;;;;8.32;52.79;100843.02;105375;1254;62549;-59
2023/10/10 07:59:58;;;;;;;5.70;1.90;;;;;;;8.37;52.66;100842.40;105928;1254;59552;-59
2023/10/10 08:05:00;;;;;;;7.70;4.20;;;;;;;8.50;52.99;100846.48;105959;1254;64671;-59
2023/10/10 08:07:29;;;;;;;6.10;1.80;;;;;;;8.60;52.74;100848.67;106035;1257;61439;-66
2023/10/10 08:10:29;;;;;;;10.90;4.40;;;;;;;8.68;52.53;100851.66;105927;1256;63910;-59
2023/10/10 08:12:47;;;;;;;5.20;2.00;;;;;;;8.77;52.53;100846.70;105149;1254;61299;-53
2023/10/10 08:15:24;;;;;;;10.10;4.40;;;;;;;8.85;52.52;100844.38;105348;1254;59647;-56
2023/10/10 08:17:54;;;;;;;6.90;2.30;;;;;;;8.95;52.21;100846.92;105376;1254;65317;-56
2023/10/10 08:23:04;;;;;;;7.30;3.60;;;;;;;9.08;51.00;100851.48;105292;1254;63696;-61
2023/10/10 08:25:32;;;;;;;5.60;2.00;;;;;;;9.10;50.98;100854.32;105893;1260;60625;-60
2023/10/10 08:28:00;;;;;;;7.20;3.60;;;;;;;9.14;51.49;100859.33;105816;1259;59554;-58
2023/10/10 08:30:28;;;;;;;4.60;1.00;;;;;;;9.20;51.23;100863.95;105195;1254;64443;-58
2023/10/10 08:32:56;;;;;;;8.30;4.00;;;;;;;9.28;51.27;100864.69;105920;1254;63498;-60
2023/10/10 08:35:27;;;;;;;5.20;1.70;;;;;;;9.35;51.01;100859.85;105337;1254;63778;-58
2023/10/10 08:37:59;;;;;;;8.60;3.40;;;;;;;9.42;50.96;100847.45;105305;1254;59694;-60
2023/10/10 08:40:31;;;;;;;5.10;1.20;;;;;;;9.51;50.67;100845.46;105343;1254;59836;-60
2023/10/10 08:42:58;;;;;;;7.70;3.80;;;;;;;9.60;50.54;100847.98;105265;1254;62997;-59
2023/10/10 08:45:26;;;;;;;4.80;2.00;;;;;;;9.70;50.46;100848.92;105316;1254;61429;-60
2023/10/10 08:48:00;;;;;;;7.90;3.20;;;;;;;9.80;50.48;100843.82;105222;1254;63726;-59
2023/10/10 08:50:32;;;;;;;6.50;2.70;;;;;;;9.94;49.86;100841.46;105904;1256;59676;-59
2023/10/10 08:53:00;;;;;;;6.70;3.10;;;;;;;10.05;49.42;100843.48;105871;1254;59585;-60
2023/10/10 08:55:28;;;;;;;4.30;1.30;;;;;;;10.15;49.33;100846.63;105902;1256;64208;-55
2023/10/10 08:57:56;;;;;;;7.00;2.40;;;;;;;10.26;49.19;100850.23;105100;1259;60154;-60
2023/10/10 09:00:27;;;;;;;5.80;1.80;;;;;;;10.36;47.95;100854.64;105214;1257;63658;-61
2023/10/10 09:02:55;;;;;;;6.30;2.10;;;;;;;10.45;47.20;100854.56;105109;1257;59606;-60
2023/10/10 09:05:29;;;;;;;5.40;2.40;;;;;;;10.51;47.17;100859.87;105406;1256;59521;-58
2023/10/10 09:08:06;;;;;;;6.00;2.30;;;;;;;10.55;47.22;100861.38;105876;1259;64180;-59
2023/10/10 09:10:39;;;;;;;3.80;2.20;;;;;;;10.60;47.48;100860.13;105714;1259;60213;-59
2023/10/10 09:13:07;;;;;;;6.40;2.70;;;;;;;10.69;47.49;100858.63;105563;1260;62437;-60
2023/10/10 09:15:35;;;;;;;7.10;2.00;;;;;;;10.79;47.41;100854.14;105247;1257;59767;-60
2023/10/10 09:18:16;;;;;;;6.80;2.70;;;;;;;10.91;47.15;100855.04;105074;1254;59784;-59
2023/10/10 09:20:46;;;;;;;5.60;2.30;;;;;;;11.03;46.95;100852.77;109104;1254;64235;-60
2023/10/10 09:23:27;;;;;;;6.30;2.50;;;;;;;11.12;46.10;100847.55;105458;1254;61899;-60
2023/10/10 09:29:03;;;;;;;4.30;0.90;;;;;;;11.21;45.26;100848.21;105137;1257;59736;-59
2023/10/10 09:31:31;;;;;;;6.50;2.50;;;;;;;11.26;44.67;100849.45;105660;1255;59554;-59
2023/10/10 09:34:03;;;;;;;6.00;2.30;;;;;;;11.30;44.20;100848.09;105782;1254;62841;-59
2023/10/10 09:36:38;;;;;;;7.30;2.80;;;;;;;11.34;44.25;100850.81;105319;1254;61329;-61
2023/10/10 09:39:08;;;;;;;8.00;2.80;;;;;;;11.36;44.66;100854.02;105736;1260;63814;-59
2023/10/10 09:41:47;;;;;;;5.70;2.30;;;;;;;11.39;43.97;100849.89;105509;1254;59727;-59
2023/10/10 09:49:45;;;;;;;5.70;2.20;;;;;;;11.45;44.43;100859.11;105141;1260;71470;-59
2023/10/10 09:55:09;;;;;;;5.60;2.00;;;;;;;11.50;44.09;100855.56;105200;1256;59723;-58
2023/10/10 09:57:39;;;;;;;6.40;2.50;;;;;;;11.56;43.37;100851.59;105186;1254;60430;-59
2023/10/10 10:00:18;;;;;;;9.90;2.80;;;;;;;11.56;42.58;100853.85;109223;1254;65770;-59
2023/10/10 10:02:57;;;;;;;3.10;1.00;;;;;;;11.56;42.58;100857.55;109181;1253;60307;-57
2023/10/10 10:05:28;;;;;;;7.00;2.30;;;;;;;11.58;42.66;100859.92;105962;1254;63691;-60
2023/10/10 10:08:00;;;;;;;4.80;2.00;;;;;;;11.59;42.58;100856.83;105852;1253;60091;-60
2023/10/10 10:10:58;;;;;;;7.30;2.00;;;;;;;11.61;42.81;100854.53;105354;1254;59832;-57
2023/10/10 10:13:37;;;;;;;5.40;1.80;;;;;;;11.71;42.23;100852.59;107760;1253;74117;-61
2023/10/10 10:16:37;;;;;;;4.10;1.80;;;;;;;11.82;42.07;100852.45;105809;1256;63844;-58
2023/10/10 10:19:15;;;;;;;5.10;2.00;;;;;;;11.91;41.93;100850.69;105701;1254;63702;-61
2023/10/10 10:21:54;;;;;;;5.00;1.60;;;;;;;11.99;41.75;100852.67;105471;1253;59714;-59
2023/10/10 10:24:30;;;;;;;6.30;1.60;;;;;;;12.07;41.80;100850.51;105552;1254;59672;-62
2023/10/10 10:27:25;;;;;;;;;;;;;;;12.13;41.72;100857.73;107598;1256;64081;-59
2023/10/10 10:30:07;;;;;;;4.60;1.80;;;;;;;12.17;40.92;100855.00;106128;1254;61383;-59
2023/10/10 10:32:35;;;;;;;5.40;1.90;;;;;;;12.15;40.18;100857.73;105882;1254;63740;-60
2023/10/10 10:35:08;;;;;;;5.00;1.60;;;;;;;12.12;40.20;100857.81;105774;1257;59630;-59
2023/10/10 10:37:39;;;;;;;5.60;1.60;;;;;;;12.09;40.31;100854.77;105524;1257;60006;-59
2023/10/10 10:42:51;;;;;;;4.70;1.70;;;;;;;12.12;40.78;100855.08;105359;1254;72644;-59
2023/10/10 10:45:36;;;;;;;3.90;1.20;;;;;;;12.18;40.06;100855.24;105495;1257;64275;-59
2023/10/10 10:48:06;;;;;;;3.80;1.10;;;;;;;12.28;39.63;100857.42;105965;1254;59607;-58
2023/10/10 10:50:46;;;;;;;7.80;1.30;;;;;;;12.37;39.23;100853.38;105703;1254;62167;-59
2023/10/10 10:53:29;;;;;;;3.10;0.90;;;;;;;12.40;39.10;100856.64;105412;1254;64413;-59
2023/10/10 10:59:12;;;;;;;4.10;1.40;;;;;;;12.30;38.95;100860.67;105657;1260;65915;-60
2023/10/10 11:01:59;;;;;;;4.80;1.60;;;;;;;12.23;39.37;100859.60;105257;1254;59620;-60
2023/10/10 11:07:07;;;;;;;4.40;1.50;;;;;;;12.13;39.90;100866.73;105241;1254;64127;-62
2023/10/10 11:09:52;;;;;;;5.00;1.20;;;;;;;12.15;39.67;100867.05;105644;1252;62287;-61
2023/10/10 11:12:31;;;;;;;4.20;1.40;;;;;;;12.24;39.07;100863.41;105254;1257;62546;-59
2023/10/10 11:15:10;;;;;;;6.30;1.20;;;;;;;12.37;38.71;100859.53;105904;1256;60310;-59
2023/10/10 11:17:38;;;;;;;5.50;1.30;;;;;;;12.52;38.17;100858.34;105402;1254;60406;-60
2023/10/10 11:20:26;;;;;;;4.40;1.30;;;;;;;12.64;38.06;100858.81;105555;1254;63787;-61
2023/10/10 11:23:06;;;;;;;5.60;1.70;;;;;;;12.69;37.62;100864.37;105929;1254;61484;-60
2023/10/10 11:25:45;;;;;;;4.90;1.50;;;;;;;12.71;37.14;100870.69;105722;1254;64296;-59
2023/10/10 11:28:23;;;;;;;4.60;1.20;;;;;;;12.73;36.86;100873.21;105389;1254;60529;-59
2023/10/10 11:30:51;;;;;;;6.00;1.50;;;;;;;12.72;36.78;100874.73;105281;1254;60369;-60
2023/10/10 11:34:42;;;;;;;6.10;1.90;;;;;;;12.69;37.00;100876.55;105163;1254;65482;-59
2023/10/10 11:36:37;;;;;;;5.30;1.40;;;;;;;12.67;37.04;100880.05;105169;1257;60370;-58
2023/10/10 11:39:31;;;;;;;3.10;0.40;;;;;;;12.65;37.08;100878.80;105385;1254;72943;-58
2023/10/10 11:42:04;;;;;;;5.70;1.30;;;;;;;12.62;36.91;100881.15;105853;1259;60536;-59
2023/10/10 11:44:33;;;;;;;5.50;1.40;;;;;;;12.58;37.11;100881.30;105815;1254;60472;-59
2023/10/10 11:47:07;;;;;;;5.60;1.50;;;;;;;12.54;37.54;100880.40;105271;1257;64930;-59
2023/10/10 11:49:35;;;;;;;4.60;1.50;;;;;;;12.52;38.24;100881.95;105753;1254;61389;-61
2023/10/10 11:52:03;;;;;;;4.60;1.50;;;;;;;12.49;38.94;100884.80;105752;1254;64276;-59
2023/10/10 11:54:32;;;;;;;3.90;1.30;;;;;;;12.45;39.27;100888.12;105720;1258;60531;-60
2023/10/10 11:56:59;;;;;;;4.30;1.20;;;;;;;12.44;39.51;100887.45;105354;1254;60508;-58
2023/10/10 11:59:27;;;;;;;4.50;1.30;;;;;;;12.46;38.54;100892.61;105328;1254;67313;-58
2023/10/10 12:02:18;;;;;;;4.70;1.50;;;;;;;12.47;38.07;100891.32;105309;1259;61367;-58
2023/10/10 12:04:47;;;;;;;4.30;1.30;;;;;;;12.49;38.31;100894.13;105317;1253;64618;-58
2023/10/10 12:07:15;;;;;;;6.70;1.50;;;;;;;12.54;38.75;100893.40;105521;1254;60533;-58
2023/10/10 12:09:45;;;;;;;4.40;1.20;;;;;;;12.60;38.66;100893.29;105303;1254;60559;-59
2023/10/10 12:12:15;;;;;;;4.30;1.40;;;;;;;12.67;39.08;100895.02;105445;1254;64917;-58
2023/10/10 12:14:43;;;;;;;4.80;1.10;;;;;;;12.73;38.75;100891.67;105267;1254;61429;-59
2023/10/10 12:17:14;;;;;;;8.60;1.50;;;;;;;12.77;38.39;100889.45;105473;1254;63732;-58
2023/10/10 12:19:43;;;;;;;4.50;1.30;;;;;;;12.78;38.28;100890.77;105504;1254;60501;-58
2023/10/10 12:22:11;;;;;;;3.50;1.00;;;;;;;12.80;38.60;100889.52;105496;1253;60592;-59
2023/10/10 12:24:39;;;;;;;3.40;1.10;;;;;;;12.80;38.38;100889.52;105538;1259;66849;-58
2023/10/10 12:27:07;;;;;;;4.10;1.30;;;;;;;12.76;38.20;100888.63;105608;1253;61330;-60
2023/10/10 12:29:47;;;;;;;3.50;1.10;;;;;;;12.72;37.65;100890.91;105777;1254;65987;-59
2023/10/10 12:32:15;;;;;;;3.80;1.10;;;;;;;12.72;37.61;100896.67;105554;1259;60565;-56
2023/10/10 12:34:45;;;;;;;4.50;1.50;;;;;;;12.79;37.65;100891.18;105489;1254;60937;-56
2023/10/10 12:37:15;;;;;;;5.40;1.50;;;;;;;12.93;37.88;100893.43;105223;1254;74506;-56
2023/10/10 12:39:43;;;;;;;3.70;1.20;;;;;;;13.02;37.56;100895.84;105337;1257;62450;-55
2023/10/10 12:42:11;;;;;;;5.20;1.50;;;;;;;13.04;36.82;100896.77;105592;1254;63819;-55
2023/10/10 12:44:39;;;;;;;3.00;1.10;;;;;;;12.98;36.75;100901.25;105313;1254;60487;-54
2023/10/10 12:47:07;;;;;;;4.40;1.50;;;;;;;12.91;36.60;100905.52;105313;1259;60467;-56
2023/10/10 12:49:44;;;;;;;3.50;1.10;;;;;;;12.92;37.20;100907.59;105738;1254;64879;-55
2023/10/10 12:52:13;;;;;;;4.60;1.50;;;;;;;13.24;36.44;100907.21;105621;1258;70300;-57
2023/10/10 12:54:41;;;;;;;4.30;1.30;;;;;;;13.69;35.97;100898.73;105396;1254;71660;-55
2023/10/10 12:57:13;;;;;;;4.40;1.20;;;;;;;14.10;35.40;100900.38;105606;1254;60526;-55
2023/10/10 12:59:46;;;;;;;4.20;1.10;;;;;;;14.38;34.28;100897.90;105478;1259;60361;-55
2023/10/10 13:02:15;;;;;;;3.30;0.80;;;;;;;14.73;33.94;100901.98;105352;1254;73899;-56
2023/10/10 13:04:46;;;;;;;2.80;0.80;;;;;;;15.37;32.96;100902.02;105521;1254;72668;-57
2023/10/10 13:07:18;;;;;;;5.20;1.10;;;;;;;15.53;32.46;100907.46;105299;1254;65971;-59
2023/10/10 13:09:46;;;;;;;3.80;1.20;;;;;;;15.40;32.44;100911.60;105270;1256;60332;-56
2023/10/10 13:12:26;;;;;;;4.40;1.00;;;;;;;15.10;32.80;100915.73;105290;1254;60495;-55
2023/10/10 13:15:17;;;;;;;2.20;0.60;;;;;;;14.76;32.84;100919.65;106047;1254;65781;-59
2023/10/10 13:17:53;;;;;;;4.00;0.90;;;;;;;14.42;33.29;100922.86;105473;1259;61396;-58
2023/10/10 13:20:21;;;;;;;3.00;0.90;;;;;;;14.12;33.40;100922.11;105374;1253;65870;-58
2023/10/10 13:22:53;;;;;;;3.30;1.00;;;;;;;13.91;33.44;100927.21;105356;1258;61212;-58
2023/10/10 13:25:21;;;;;;;4.20;1.00;;;;;;;13.79;34.00;100927.38;105305;1258;61086;-58
2023/10/10 13:27:52;;;;;;;5.30;1.20;;;;;;;13.76;34.04;100928.45;105401;1254;63653;-57
2023/10/10 13:30:20;;;;;;;3.20;0.90;;;;;;;14.37;33.46;100927.86;105448;1259;70079;-58
2023/10/10 13:32:48;;;;;;;7.60;1.00;;;;;;;15.24;32.80;100925.81;105402;1254;75045;-59
2023/10/10 13:35:15;;;;;;;4.90;0.90;;;;;;;16.40;32.00;100925.82;105351;1254;60564;-59
2023/10/10 13:37:43;;;;;;;3.80;1.20;;;;;;;17.63;30.40;100919.94;105400;1254;60573;-58
2023/10/10 13:40:20;;;;;;;4.70;1.20;;;;;;;18.65;29.08;100919.56;105566;1254;74599;-57
2023/10/10 13:42:49;;;;;;;4.50;1.00;;;;;;;19.58;28.01;100913.84;105354;1254;72897;-59
2023/10/10 13:45:21;;;;;;;3.50;0.90;;;;;;;20.49;27.17;100914.13;105223;1254;75979;-60
2023/10/10 13:47:50;;;;;;;4.40;1.50;;;;;;;21.31;25.62;100909.27;105307;1254;61184;-62
2023/10/10 13:50:40;;;;;;;3.20;0.90;;;;;;;21.53;24.30;100914.77;105322;1254;60422;-60
2023/10/10 13:53:13;;;;;;;5.30;1.60;;;;;;;21.38;24.49;100915.28;105507;1254;72881;-60
2023/10/10 13:55:42;;;;;;;5.40;1.40;;;;;;;21.15;23.99;100913.63;105359;1254;70300;-62
2023/10/10 13:58:12;;;;;;;4.80;1.00;;;;;;;20.79;24.55;100923.14;105436;1254;73158;-59
2023/10/10 14:00:42;;;;;;;5.30;1.50;;;;;;;20.53;24.95;100926.14;105593;1254;62132;-51
2023/10/10 14:03:14;;;;;;;3.70;1.00;;;;;;;20.47;25.21;100928.90;109171;1254;62931;-62
2023/10/10 14:06:00;;;;;;;4.00;1.40;;;;;;;20.44;24.52;100926.73;108091;1254;76009;-60
2023/10/10 14:08:30;;;;;;;;;;;;;;;20.27;24.84;100929.98;105294;1254;72736;-59
2023/10/10 14:11:01;;;;;;;3.10;1.00;;;;;;;20.03;24.82;100932.07;105159;1254;73123;-59
2023/10/10 14:13:29;;;;;;;3.70;0.70;;;;;;;19.85;25.30;100934.80;108544;1253;60594;-57
2023/10/10 14:16:01;;;;;;;2.70;0.70;;;;;;;19.70;25.56;100941.40;105977;1254;62348;-57
2023/10/10 14:18:47;;;;;;;4.10;0.70;;;;;;;19.69;25.99;100947.93;105846;1254;75148;-58
2023/10/10 14:21:24;;;;;;;;;;;;;;;19.51;26.11;100951.61;109372;1252;69914;-60
2023/10/10 14:24:07;;;;;;;3.20;0.60;;;;;;;18.98;26.76;100959.28;107851;1253;71282;-58
2023/10/10 14:26:36;;;;;;;2.40;0.50;;;;;;;18.24;27.86;100969.24;109265;1254;58462;-61
2023/10/10 14:29:08;;;;;;;2.70;0.80;;;;;;;17.43;28.78;100971.95;105694;1254;60536;-59
2023/10/10 14:31:42;;;;;;;3.30;0.90;;;;;;;16.66;29.81;100977.54;106563;1254;63681;-59
2023/10/10 14:34:24;;;;;;;3.40;0.70;;;;;;;16.01;31.06;100981.14;105307;1255;61525;-59
2023/10/10 14:36:53;;;;;;;2.60;0.70;;;;;;;15.48;31.86;100984.30;107700;1257;66596;-62
2023/10/10 14:39:44;;;;;;;5.10;1.00;;;;;;;15.04;32.55;100989.30;105471;1254;60457;-58
2023/10/10 14:42:15;;;;;;;3.30;0.90;;;;;;;14.66;33.23;100992.42;107216;1254;60331;-58
2023/10/10 14:44:42;;;;;;;2.40;0.70;;;;;;;14.32;33.15;100991.65;105395;1254;63635;-57